Time,TemperatureF,DewpointF,PressureIn,WindDirection,WindDirectionDegrees,WindSpeedMPH,WindSpeedGustMPH,Humidity,HourlyPrecipIn,Conditions,Clouds,dailyrainin,SolarRadiationWatts/m^2,SoftwareType,DateUTC
2013-02-28 00:00:00,19.2,8.3,30.58,East,85,0.0,7.0,62,0.00,,,0.00,0,Wunderground v.1.15,2013-02-28 07:00:00,
2013-02-28 00:05:00,19.0,8.1,30.58,East,85,0.0,7.0,62,0.00,,,0.00,0,Wunderground v.1.15,2013-02-28 07:05:00,
2013-02-28 00:15:00,19.1,9.3,30.59,East,85,0.0,0.0,65,0.00,,,0.00,0,Wunderground v.1.15,2013-02-28 07:15:00,
2013-02-28 00:25:00,18.7,8.5,30.59,East,85,0.0,0.0,64,0.00,,,0.00,0,Wunderground v.1.15,2013-02-28 07:25:00,
2013-02-28 00:30:00,18.6,9.1,30.60,East,85,0.0,0.0,66,0.00,,,0.00,0,Wunderground v.1.15,2013-02-28 07:30:00,
2013-02-28 00:40:00,18.7,9.9,30.60,East,85,0.0,0.0,68,0.00,,,0.00,0,Wunderground v.1.15,2013-02-28 07:40:00,
2013-02-28 00:50:00,18.0,8.5,30.61,East,85,0.0,0.0,66,0.00,,,0.00,0,Wunderground v.1.15,2013-02-28 07:50:00,
2013-02-28 00:55:00,17.9,8.8,30.61,East,85,0.0,0.0,67,0.00,,,0.00,0,Wunderground v.1.15,2013-02-28 07:55:00,
2013-02-28 01:05:00,17.6,8.5,30.62,East,85,0.0,0.0,67,0.00,,,0.00,0,Wunderground v.1.15,2013-02-28 08:05:00,
2013-02-28 01:15:00,17.5,8.4,30.62,East,85,0.0,1.0,67,0.00,,,0.00,0,Wunderground v.1.15,2013-02-28 08:15:00,
2013-02-28 01:20:00,17.3,8.2,30.63,East,85,0.0,0.0,67,0.00,,,0.00,0,Wunderground v.1.15,2013-02-28 08:20:00,
2013-02-28 01:25:00,17.3,8.5,30.63,East,85,0.0,0.0,68,0.00,,,0.00,0,Wunderground v.1.15,2013-02-28 08:25:00,
2013-02-28 01:30:00,17.3,8.2,30.64,East,85,0.0,1.0,67,0.00,,,0.00,0,Wunderground v.1.15,2013-02-28 08:30:00,
2013-02-28 01:40:00,17.1,7.7,30.64,East,85,0.0,0.0,66,0.00,,,0.00,0,Wunderground v.1.15,2013-02-28 08:40:00,
2013-02-28 01:50:00,16.8,7.7,30.65,East,85,0.0,0.0,67,0.00,,,0.00,0,Wunderground v.1.15,2013-02-28 08:50:00,
2013-02-28 01:55:00,16.9,8.5,30.65,East,85,0.0,0.0,69,0.00,,,0.00,0,Wunderground v.1.15,2013-02-28 08:55:00,
2013-02-28 02:05:00,16.6,7.9,30.65,East,85,0.0,0.0,68,0.00,,,0.00,0,Wunderground v.1.15,2013-02-28 09:05:00,
2013-02-28 02:15:00,16.2,7.5,30.64,East,85,0.0,0.0,68,0.00,,,0.00,0,Wunderground v.1.15,2013-02-28 09:15:00,
2013-02-28 02:20:00,16.6,8.8,30.65,East,85,0.0,0.0,71,0.00,,,0.00,0,Wunderground v.1.15,2013-02-28 09:20:00,
2013-02-28 02:25:00,16.4,8.3,30.64,East,85,0.0,0.0,70,0.00,,,0.00,0,Wunderground v.1.15,2013-02-28 09:25:00,
2013-02-28 02:35:00,16.2,8.4,30.64,East,85,0.0,0.0,71,0.00,,,0.00,0,Wunderground v.1.15,2013-02-28 09:35:00,
2013-02-28 02:40:00,15.8,7.7,30.65,East,85,0.0,0.0,70,0.00,,,0.00,0,Wunderground v.1.15,2013-02-28 09:40:00,
2013-02-28 02:50:00,15.5,7.5,30.64,East,85,0.0,0.0,70,0.00,,,0.00,0,Wunderground v.1.15,2013-02-28 09:50:00,
2013-02-28 03:00:00,15.6,7.9,30.64,East,85,0.0,1.0,71,0.00,,,0.00,0,Wunderground v.1.15,2013-02-28 10:00:00,
2013-02-28 03:05:00,15.5,7.5,30.64,East,85,0.0,1.0,70,0.00,,,0.00,0,Wunderground v.1.15,2013-02-28 10:05:00,
2013-02-28 03:15:00,15.5,8.1,30.64,East,85,0.0,1.0,72,0.00,,,0.00,0,Wunderground v.1.15,2013-02-28 10:15:00,
2013-02-28 03:25:00,15.4,8.3,30.64,East,85,0.0,0.0,73,0.00,,,0.00,0,Wunderground v.1.15,2013-02-28 10:25:00,
2013-02-28 03:40:00,15.1,8.0,30.65,East,85,0.0,0.0,73,0.00,,,0.00,0,Wunderground v.1.15,2013-02-28 10:40:00,
2013-02-28 03:45:00,14.9,7.5,30.64,East,85,0.0,0.0,72,0.00,,,0.00,0,Wunderground v.1.15,2013-02-28 10:45:00,
2013-02-28 03:55:00,14.6,7.2,30.64,East,85,0.0,0.0,72,0.00,,,0.00,0,Wunderground v.1.15,2013-02-28 10:55:00,
2013-02-28 04:00:00,14.5,7.1,30.64,East,85,0.0,0.0,72,0.00,,,0.00,0,Wunderground v.1.15,2013-02-28 11:00:00,
2013-02-28 04:10:00,14.2,6.5,30.65,East,85,0.0,2.0,71,0.00,,,0.00,0,Wunderground v.1.15,2013-02-28 11:10:00,
2013-02-28 04:20:00,14.0,6.3,30.65,East,85,0.0,2.0,71,0.00,,,0.00,0,Wunderground v.1.15,2013-02-28 11:20:00,
2013-02-28 04:30:00,14.0,6.3,30.65,East,85,0.0,2.0,71,0.00,,,0.00,0,Wunderground v.1.15,2013-02-28 11:30:00,
2013-02-28 04:35:00,13.9,5.9,30.65,East,85,0.0,2.0,70,0.00,,,0.00,0,Wunderground v.1.15,2013-02-28 11:35:00,
2013-02-28 04:45:00,14.1,7.0,30.65,East,85,1.0,2.0,73,0.00,,,0.00,0,Wunderground v.1.15,2013-02-28 11:45:00,
2013-02-28 04:55:00,13.8,6.4,30.66,East,85,0.0,2.0,72,0.00,,,0.00,0,Wunderground v.1.15,2013-02-28 11:55:00,
2013-02-28 05:00:00,14.0,7.2,30.66,East,85,0.0,2.0,74,0.00,,,0.00,0,Wunderground v.1.15,2013-02-28 12:00:00,
2013-02-28 05:05:00,13.8,6.7,30.66,ESE,116,0.0,2.0,73,0.00,,,0.00,0,Wunderground v.1.15,2013-02-28 12:05:00,
2013-02-28 05:15:00,13.2,5.9,30.66,SW,217,0.0,2.0,72,0.00,,,0.00,0,Wunderground v.1.15,2013-02-28 12:15:00,
2013-02-28 05:25:00,13.0,5.7,30.66,SW,218,0.0,2.0,72,0.00,,,0.00,0,Wunderground v.1.15,2013-02-28 12:25:00,
2013-02-28 05:35:00,12.5,5.2,30.66,SW,218,0.0,2.0,72,0.00,,,0.00,0,Wunderground v.1.15,2013-02-28 12:35:00,
2013-02-28 05:40:00,12.7,5.7,30.66,SW,218,0.0,2.0,73,0.00,,,0.00,0,Wunderground v.1.15,2013-02-28 12:40:00,
2013-02-28 05:45:00,12.8,5.5,30.66,SW,218,0.0,2.0,72,0.00,,,0.00,0,Wunderground v.1.15,2013-02-28 12:45:00,
2013-02-28 05:55:00,13.0,6.0,30.67,SW,218,0.0,2.0,73,0.00,,,0.00,0,Wunderground v.1.15,2013-02-28 12:55:00,
2013-02-28 06:05:00,12.7,5.4,30.66,SW,218,0.0,2.0,72,0.00,,,0.00,0,Wunderground v.1.15,2013-02-28 13:05:00,
2013-02-28 06:15:00,12.6,5.3,30.67,SW,217,0.0,0.0,72,0.00,,,0.00,0,Wunderground v.1.15,2013-02-28 13:15:00,
2013-02-28 06:25:00,12.5,4.9,30.67,SW,218,0.0,1.0,71,0.00,,,0.00,0,Wunderground v.1.15,2013-02-28 13:25:00,
2013-02-28 06:35:00,12.2,4.6,30.67,SW,218,0.0,0.0,71,0.00,,,0.00,0,Wunderground v.1.15,2013-02-28 13:35:00,
2013-02-28 06:45:00,11.9,4.3,30.67,SW,218,0.0,2.0,71,0.00,,,0.00,5,Wunderground v.1.15,2013-02-28 13:45:00,
2013-02-28 06:50:00,11.7,4.1,30.67,SW,217,0.0,0.0,71,0.00,,,0.00,7,Wunderground v.1.15,2013-02-28 13:50:00,
2013-02-28 07:00:00,12.5,5.8,30.67,SSW,193,1.0,1.0,74,0.00,,,0.00,12,Wunderground v.1.15,2013-02-28 14:00:00,
2013-02-28 07:05:00,11.8,4.8,30.68,SSW,204,1.0,1.0,73,0.00,,,0.00,14,Wunderground v.1.15,2013-02-28 14:05:00,
2013-02-28 07:15:00,11.7,5.0,30.68,SSW,206,0.0,1.0,74,0.00,,,0.00,18,Wunderground v.1.15,2013-02-28 14:15:00,
2013-02-28 07:25:00,11.7,5.0,30.68,SSW,204,0.0,0.0,74,0.00,,,0.00,21,Wunderground v.1.15,2013-02-28 14:25:00,
2013-02-28 07:30:00,11.7,4.7,30.68,SSW,205,0.0,0.0,73,0.00,,,0.00,23,Wunderground v.1.15,2013-02-28 14:30:00,
2013-02-28 07:35:00,11.7,4.7,30.68,SSW,206,0.0,0.0,73,0.00,,,0.00,23,Wunderground v.1.15,2013-02-28 14:35:00,
2013-02-28 07:40:00,11.8,4.8,30.68,SSW,207,0.0,0.0,73,0.00,,,0.00,25,Wunderground v.1.15,2013-02-28 14:40:00,
2013-02-28 07:50:00,11.9,4.6,30.69,SSW,207,0.0,0.0,72,0.00,,,0.00,28,Wunderground v.1.15,2013-02-28 14:50:00,
2013-02-28 08:00:00,12.3,5.0,30.69,SSW,207,0.0,0.0,72,0.00,,,0.00,30,Wunderground v.1.15,2013-02-28 15:00:00,
2013-02-28 08:10:00,12.7,5.1,30.70,SSW,205,1.0,1.0,71,0.00,,,0.00,32,Wunderground v.1.15,2013-02-28 15:10:00,
2013-02-28 08:15:00,13.0,5.4,30.70,SSW,205,1.0,1.0,71,0.00,,,0.00,33,Wunderground v.1.15,2013-02-28 15:15:00,
2013-02-28 08:25:00,13.8,6.1,30.70,SSW,204,0.0,2.0,71,0.00,,,0.00,197,Wunderground v.1.15,2013-02-28 15:25:00,
2013-02-28 08:30:00,14.8,7.7,30.70,East,93,0.0,5.0,73,0.00,,,0.00,320,Wunderground v.1.15,2013-02-28 15:30:00,
2013-02-28 08:35:00,16.0,8.9,30.69,ESE,108,1.0,5.0,73,0.00,,,0.00,209,Wunderground v.1.15,2013-02-28 15:35:00,
2013-02-28 08:45:00,17.2,8.8,30.69,East,95,2.0,2.0,69,0.00,,,0.00,237,Wunderground v.1.15,2013-02-28 15:45:00,
2013-02-28 08:55:00,17.9,8.1,30.69,ESE,116,1.0,2.0,65,0.00,,,0.00,359,Wunderground v.1.15,2013-02-28 15:55:00,
2013-02-28 09:05:00,18.6,7.0,30.69,North,354,2.0,4.0,60,0.00,,,0.00,383,Wunderground v.1.15,2013-02-28 16:05:00,
2013-02-28 09:15:00,19.5,8.2,30.69,East,87,2.0,2.0,61,0.00,,,0.00,429,Wunderground v.1.15,2013-02-28 16:15:00,
2013-02-28 09:25:00,20.3,8.2,30.69,NE,49,2.0,3.0,59,0.00,,,0.00,455,Wunderground v.1.15,2013-02-28 16:25:00,
2013-02-28 09:35:00,21.8,7.7,30.69,NNE,29,1.0,5.0,54,0.00,,,0.00,527,Wunderground v.1.15,2013-02-28 16:35:00,
2013-02-28 09:45:00,21.5,8.6,30.69,ENE,69,2.0,3.0,57,0.00,,,0.00,239,Wunderground v.1.15,2013-02-28 16:45:00,
2013-02-28 09:55:00,22.3,7.3,30.69,South,173,3.0,3.0,52,0.00,,,0.00,538,Wunderground v.1.15,2013-02-28 16:55:00,
2013-02-28 10:00:00,23.4,9.6,30.69,ESE,105,2.0,2.0,55,0.00,,,0.00,519,Wunderground v.1.15,2013-02-28 17:00:00,
2013-02-28 10:10:00,23.8,11.2,30.68,ENE,78,1.0,1.0,58,0.00,,,0.00,555,Wunderground v.1.15,2013-02-28 17:10:00,
2013-02-28 10:15:00,23.4,8.3,30.68,ENE,69,2.0,2.0,52,0.00,,,0.00,566,Wunderground v.1.15,2013-02-28 17:15:00,
2013-02-28 10:25:00,25.0,9.8,30.67,NE,48,1.0,4.0,52,0.00,,,0.00,584,Wunderground v.1.15,2013-02-28 17:25:00,
2013-02-28 10:35:00,24.6,6.3,30.67,NE,45,2.0,3.0,45,0.00,,,0.00,613,Wunderground v.1.15,2013-02-28 17:35:00,
2013-02-28 10:40:00,25.6,7.2,30.66,ENE,63,2.0,3.0,45,0.00,,,0.00,603,Wunderground v.1.15,2013-02-28 17:40:00,
2013-02-28 10:50:00,28.1,10.4,30.66,ENE,60,1.0,3.0,47,0.00,,,0.00,577,Wunderground v.1.15,2013-02-28 17:50:00,
2013-02-28 11:00:00,27.9,7.7,30.65,SE,139,1.0,3.0,42,0.00,,,0.00,654,Wunderground v.1.15,2013-02-28 18:00:00,
2013-02-28 11:10:00,28.7,7.4,30.65,SW,233,2.0,2.0,40,0.00,,,0.00,661,Wunderground v.1.15,2013-02-28 18:10:00,
2013-02-28 11:20:00,30.8,9.8,30.64,SSE,166,2.0,2.0,41,0.00,,,0.00,670,Wunderground v.1.15,2013-02-28 18:20:00,
2013-02-28 11:30:00,30.5,9.0,30.63,WSW,241,2.0,2.0,40,0.00,,,0.00,686,Wunderground v.1.15,2013-02-28 18:30:00,
2013-02-28 11:40:00,31.0,7.1,30.63,SSE,152,1.0,1.0,36,0.00,,,0.00,700,Wunderground v.1.15,2013-02-28 18:40:00,
2013-02-28 11:45:00,32.5,11.9,30.63,SSW,212,1.0,3.0,42,0.00,,,0.00,708,Wunderground v.1.15,2013-02-28 18:45:00,
2013-02-28 11:55:00,32.2,7.6,30.61,SW,214,2.0,3.0,35,0.00,,,0.00,728,Wunderground v.1.15,2013-02-28 18:55:00,
2013-02-28 12:05:00,33.4,10.5,30.61,South,176,2.0,3.0,38,0.00,,,0.00,714,Wunderground v.1.15,2013-02-28 19:05:00,
2013-02-28 12:15:00,33.3,9.2,30.60,SW,216,2.0,2.0,36,0.00,,,0.00,563,Wunderground v.1.15,2013-02-28 19:15:00,
2013-02-28 12:25:00,33.9,8.4,30.59,South,179,2.0,4.0,34,0.00,,,0.00,773,Wunderground v.1.15,2013-02-28 19:25:00,
2013-02-28 12:35:00,35.3,15.0,30.59,SW,220,3.0,5.0,43,0.00,,,0.00,624,Wunderground v.1.15,2013-02-28 19:35:00,
2013-02-28 12:45:00,35.6,11.2,30.58,SW,230,2.0,3.0,36,0.00,,,0.00,744,Wunderground v.1.15,2013-02-28 19:45:00,
2013-02-28 12:50:00,36.2,12.4,30.58,SW,235,2.0,2.0,37,0.00,,,0.00,557,Wunderground v.1.15,2013-02-28 19:50:00,
2013-02-28 12:55:00,36.6,10.8,30.57,SW,225,3.0,3.0,34,0.00,,,0.00,731,Wunderground v.1.15,2013-02-28 19:55:00,
2013-02-28 13:00:00,37.6,13.6,30.57,WSW,241,3.0,3.0,37,0.00,,,0.00,703,Wunderground v.1.15,2013-02-28 20:00:00,
2013-02-28 13:10:00,36.4,10.0,30.56,WNW,285,5.0,5.0,33,0.00,,,0.00,670,Wunderground v.1.15,2013-02-28 20:10:00,
2013-02-28 13:20:00,36.9,10.4,30.55,SSW,212,4.0,6.0,33,0.00,,,0.00,684,Wunderground v.1.15,2013-02-28 20:20:00,
2013-02-28 13:25:00,36.0,10.3,30.55,WSW,256,5.0,6.0,34,0.00,,,0.00,687,Wunderground v.1.15,2013-02-28 20:25:00,
2013-02-28 13:35:00,37.4,9.5,30.55,SSW,203,2.0,5.0,31,0.00,,,0.00,679,Wunderground v.1.15,2013-02-28 20:35:00,
2013-02-28 13:40:00,38.0,12.1,30.54,SW,224,2.0,10.0,34,0.00,,,0.00,677,Wunderground v.1.15,2013-02-28 20:40:00,
2013-02-28 13:50:00,38.5,10.4,30.54,SSW,211,4.0,6.0,31,0.00,,,0.00,671,Wunderground v.1.15,2013-02-28 20:50:00,
2013-02-28 14:00:00,37.4,8.7,30.54,SW,225,7.0,10.0,30,0.00,,,0.00,652,Wunderground v.1.15,2013-02-28 21:00:00,
2013-02-28 14:10:00,38.2,10.2,30.54,SW,222,7.0,7.0,31,0.00,,,0.00,638,Wunderground v.1.15,2013-02-28 21:10:00,
2013-02-28 14:20:00,38.4,13.1,30.54,SW,219,4.0,6.0,35,0.00,,,0.00,536,Wunderground v.1.15,2013-02-28 21:20:00,
2013-02-28 14:30:00,38.9,12.2,30.53,SSW,204,4.0,7.0,33,0.00,,,0.00,561,Wunderground v.1.15,2013-02-28 21:30:00,
2013-02-28 14:40:00,38.7,14.6,30.54,SSW,212,4.0,4.0,37,0.00,,,0.00,288,Wunderground v.1.15,2013-02-28 21:40:00,
2013-02-28 14:45:00,38.3,13.6,30.54,SSW,211,3.0,6.0,36,0.00,,,0.00,401,Wunderground v.1.15,2013-02-28 21:45:00,
2013-02-28 14:55:00,39.1,14.4,30.54,WNW,289,3.0,6.0,36,0.00,,,0.00,336,Wunderground v.1.15,2013-02-28 21:55:00,
2013-02-28 15:05:00,38.7,13.4,30.54,SW,224,5.0,7.0,35,0.00,,,0.00,446,Wunderground v.1.15,2013-02-28 22:05:00,
2013-02-28 15:15:00,39.1,14.4,30.54,SSW,196,5.0,6.0,36,0.00,,,0.00,353,Wunderground v.1.15,2013-02-28 22:15:00,
2013-02-28 15:25:00,39.2,16.9,30.54,SSW,210,4.0,4.0,40,0.00,,,0.00,380,Wunderground v.1.15,2013-02-28 22:25:00,
2013-02-28 15:30:00,39.9,15.1,30.54,SSW,199,4.0,4.0,36,0.00,,,0.00,417,Wunderground v.1.15,2013-02-28 22:30:00,
2013-02-28 15:40:00,39.7,17.3,30.54,SW,215,5.0,6.0,40,0.00,,,0.00,360,Wunderground v.1.15,2013-02-28 22:40:00,
2013-02-28 15:45:00,39.1,16.2,30.54,SSE,150,5.0,6.0,39,0.00,,,0.00,128,Wunderground v.1.15,2013-02-28 22:45:00,
2013-02-28 15:55:00,38.3,14.9,30.54,SW,231,5.0,6.0,38,0.00,,,0.00,171,Wunderground v.1.15,2013-02-28 22:55:00,
2013-02-28 16:00:00,38.2,14.2,30.54,SW,218,5.0,8.0,37,0.00,,,0.00,186,Wunderground v.1.15,2013-02-28 23:00:00,
2013-02-28 16:05:00,38.2,12.9,30.55,SSE,153,5.0,8.0,35,0.00,,,0.00,160,Wunderground v.1.15,2013-02-28 23:05:00,
2013-02-28 16:10:00,38.0,14.6,30.54,SSW,212,5.0,11.0,38,0.00,,,0.00,151,Wunderground v.1.15,2013-02-28 23:10:00,
2013-02-28 16:20:00,37.8,12.6,30.54,SW,218,5.0,11.0,35,0.00,,,0.00,123,Wunderground v.1.15,2013-02-28 23:20:00,
2013-02-28 16:30:00,38.0,14.6,30.54,SSW,210,5.0,11.0,38,0.00,,,0.00,116,Wunderground v.1.15,2013-02-28 23:30:00,
2013-02-28 16:40:00,38.2,15.4,30.54,SW,228,6.0,6.0,39,0.00,,,0.00,160,Wunderground v.1.15,2013-02-28 23:40:00,
2013-02-28 16:50:00,38.0,14.6,30.54,SW,225,5.0,5.0,38,0.00,,,0.00,91,Wunderground v.1.15,2013-02-28 23:50:00,
2013-02-28 17:00:00,37.7,14.3,30.54,SSE,158,4.0,11.0,38,0.00,,,0.00,86,Wunderground v.1.15,2013-03-01 00:00:00,
2013-02-28 17:10:00,37.6,14.8,30.54,South,173,6.0,6.0,39,0.00,,,0.00,54,Wunderground v.1.15,2013-03-01 00:10:00,
2013-02-28 17:20:00,37.8,16.7,30.54,SSW,212,2.0,2.0,42,0.00,,,0.00,40,Wunderground v.1.15,2013-03-01 00:20:00,
2013-02-28 17:25:00,37.6,16.0,30.54,NW,326,1.0,3.0,41,0.00,,,0.00,40,Wunderground v.1.15,2013-03-01 00:25:00,
2013-02-28 17:35:00,37.3,17.9,30.54,WSW,237,1.0,11.0,45,0.00,,,0.00,21,Wunderground v.1.15,2013-03-01 00:35:00,
2013-02-28 17:40:00,37.0,16.5,30.55,West,278,1.0,11.0,43,0.00,,,0.00,16,Wunderground v.1.15,2013-03-01 00:40:00,
2013-02-28 17:50:00,36.9,18.0,30.55,SSW,206,3.0,3.0,46,0.00,,,0.00,9,Wunderground v.1.15,2013-03-01 00:50:00,
2013-02-28 18:00:00,36.7,18.3,30.56,West,269,1.0,11.0,47,0.00,,,0.00,0,Wunderground v.1.15,2013-03-01 01:00:00,
2013-02-28 18:05:00,36.6,19.2,30.56,South,183,1.0,11.0,49,0.00,,,0.00,0,Wunderground v.1.15,2013-03-01 01:05:00,
2013-02-28 18:15:00,36.5,19.1,30.56,South,170,2.0,3.0,49,0.00,,,0.00,0,Wunderground v.1.15,2013-03-01 01:15:00,
2013-02-28 18:25:00,36.5,20.1,30.57,WSW,237,2.0,2.0,51,0.00,,,0.00,0,Wunderground v.1.15,2013-03-01 01:25:00,
2013-02-28 18:35:00,36.2,20.7,30.57,WSW,243,2.0,2.0,53,0.00,,,0.00,0,Wunderground v.1.15,2013-03-01 01:35:00,
2013-02-28 18:40:00,35.9,21.3,30.57,SSW,212,2.0,7.0,55,0.00,,,0.00,0,Wunderground v.1.15,2013-03-01 01:40:00,
2013-02-28 18:45:00,35.6,21.4,30.57,SSW,212,2.0,7.0,56,0.00,,,0.00,0,Wunderground v.1.15,2013-03-01 01:45:00,
2013-02-28 18:55:00,35.8,23.3,30.57,SW,224,3.0,4.0,60,0.00,,,0.00,0,Wunderground v.1.15,2013-03-01 01:55:00,
2013-02-28 19:05:00,35.5,24.1,30.57,SSW,204,4.0,4.0,63,0.00,,,0.00,0,Wunderground v.1.15,2013-03-01 02:05:00,
2013-02-28 19:10:00,35.5,23.8,30.57,SSW,204,3.0,5.0,62,0.00,,,0.00,0,Wunderground v.1.15,2013-03-01 02:10:00,
2013-02-28 19:20:00,35.7,25.1,30.57,SSW,206,3.0,3.0,65,0.00,,,0.00,0,Wunderground v.1.15,2013-03-01 02:20:00,
2013-02-28 19:30:00,35.3,24.3,30.57,SSW,205,3.0,5.0,64,0.00,,,0.00,0,Wunderground v.1.15,2013-03-01 02:30:00,
2013-02-28 19:40:00,35.1,24.5,30.57,SW,224,3.0,3.0,65,0.00,,,0.00,0,Wunderground v.1.15,2013-03-01 02:40:00,
2013-02-28 19:50:00,34.8,23.1,30.56,SW,226,2.0,2.0,62,0.00,,,0.00,0,Wunderground v.1.15,2013-03-01 02:50:00,
2013-02-28 19:55:00,34.8,23.5,30.57,SW,218,1.0,5.0,63,0.00,,,0.00,0,Wunderground v.1.15,2013-03-01 02:55:00,
2013-02-28 20:05:00,35.1,23.8,30.57,SW,214,4.0,5.0,63,0.00,,,0.00,0,Wunderground v.1.15,2013-03-01 03:05:00,
2013-02-28 20:15:00,34.7,24.5,30.57,WSW,243,5.0,6.0,66,0.00,,,0.00,0,Wunderground v.1.15,2013-03-01 03:15:00,
2013-02-28 20:20:00,34.4,24.2,30.57,WSW,247,4.0,5.0,66,0.00,,,0.00,0,Wunderground v.1.15,2013-03-01 03:20:00,
2013-02-28 20:30:00,34.3,25.2,30.58,SW,233,4.0,6.0,69,0.00,,,0.00,0,Wunderground v.1.15,2013-03-01 03:30:00,
2013-02-28 20:40:00,33.0,26.3,30.59,SW,220,4.0,4.0,76,0.00,,,0.00,0,Wunderground v.1.15,2013-03-01 03:40:00,
2013-02-28 20:50:00,32.3,27.1,30.59,SW,222,4.0,4.0,81,0.00,,,0.00,0,Wunderground v.1.15,2013-03-01 03:50:00,
2013-02-28 20:55:00,31.9,27.0,30.59,SW,224,3.0,5.0,82,0.00,,,0.00,0,Wunderground v.1.15,2013-03-01 03:55:00,
2013-02-28 21:05:00,31.2,26.9,30.59,SW,222,2.0,3.0,84,0.00,,,0.00,0,Wunderground v.1.15,2013-03-01 04:05:00,
2013-02-28 21:15:00,30.7,26.7,30.59,West,275,3.0,4.0,85,0.00,,,0.00,0,Wunderground v.1.15,2013-03-01 04:15:00,
2013-02-28 21:20:00,30.4,26.7,30.60,WSW,238,3.0,3.0,86,0.00,,,0.00,0,Wunderground v.1.15,2013-03-01 04:20:00,
2013-02-28 21:25:00,30.3,26.6,30.60,WSW,250,2.0,4.0,86,0.00,,,0.00,0,Wunderground v.1.15,2013-03-01 04:25:00,
2013-02-28 21:35:00,30.2,26.8,30.60,SW,228,2.0,2.0,87,0.00,,,0.00,0,Wunderground v.1.15,2013-03-01 04:35:00,
2013-02-28 21:45:00,29.9,26.8,30.60,WSW,249,1.0,2.0,88,0.00,,,0.00,0,Wunderground v.1.15,2013-03-01 04:45:00,
2013-02-28 21:55:00,30.0,26.9,30.61,West,280,1.0,1.0,88,0.00,,,0.00,0,Wunderground v.1.15,2013-03-01 04:55:00,
2013-02-28 22:00:00,29.9,26.8,30.61,SE,134,1.0,1.0,88,0.00,,,0.00,0,Wunderground v.1.15,2013-03-01 05:00:00,
2013-02-28 22:05:00,30.0,27.2,30.61,SE,135,0.0,5.0,89,0.00,,,0.00,0,Wunderground v.1.15,2013-03-01 05:05:00,
2013-02-28 22:15:00,30.0,27.2,30.61,SSW,202,0.0,5.0,89,0.00,,,0.00,0,Wunderground v.1.15,2013-03-01 05:15:00,
2013-02-28 22:20:00,29.9,27.1,30.61,SSW,200,0.0,5.0,89,0.00,,,0.00,0,Wunderground v.1.15,2013-03-01 05:20:00,
2013-02-28 22:30:00,30.2,27.3,30.60,SW,226,1.0,1.0,89,0.00,,,0.00,0,Wunderground v.1.15,2013-03-01 05:30:00,
2013-02-28 22:40:00,29.9,26.8,30.60,SW,226,0.0,5.0,88,0.00,,,0.01,0,Wunderground v.1.15,2013-03-01 05:40:00,
2013-02-28 22:50:00,29.9,27.1,30.60,SW,226,0.0,5.0,89,0.00,,,0.01,0,Wunderground v.1.15,2013-03-01 05:50:00,
2013-02-28 22:55:00,30.3,27.7,30.60,SW,226,0.0,5.0,90,0.00,,,0.01,0,Wunderground v.1.15,2013-03-01 05:55:00,
2013-02-28 23:00:00,30.3,27.4,30.60,SW,226,0.0,5.0,89,0.00,,,0.01,0,Wunderground v.1.15,2013-03-01 06:00:00,
2013-02-28 23:10:00,30.1,27.3,30.60,SW,226,0.0,5.0,89,0.00,,,0.01,0,Wunderground v.1.15,2013-03-01 06:10:00,
2013-02-28 23:20:00,30.1,27.5,30.60,SW,222,0.0,5.0,90,0.00,,,0.01,0,Wunderground v.1.15,2013-03-01 06:20:00,
2013-02-28 23:30:00,30.1,27.5,30.59,SW,222,0.0,5.0,90,0.00,,,0.01,0,Wunderground v.1.15,2013-03-01 06:30:00,
2013-02-28 23:40:00,29.9,27.1,30.60,SW,222,0.0,5.0,89,0.00,,,0.01,0,Wunderground v.1.15,2013-03-01 06:40:00,
2013-02-28 23:50:00,29.7,26.9,30.60,SW,222,0.0,5.0,89,0.00,,,0.01,0,Wunderground v.1.15,2013-03-01 06:50:00,
2013-02-28 23:55:00,29.7,26.9,30.60,SW,222,0.0,5.0,89,0.00,,,0.01,0,Wunderground v.1.15,2013-03-01 06:55:00,